aviador You're here:

SKBQ Decoded Metar

BARRANQUILLA in COLOMBIA
Report Time2017-09-26 07:00:00
UTC Time2017-09-26 07:09:28
Flight Rules vfr VFR
WindCalm
Visibility9999 m
Phenomena:N/A
Clouds:Scattered 008 Hf
Broken 200 Hf
Ceiling20,000 ft
Temp24°C (ISA +9)
Dew Point24°C (100% RH)
QNH1009 hPa
Density Alt1,611 ft
Elevation33 ft
Report Wrong Elevation
Raw Report
METAR SKBQ 260700Z 00000KT 9999 SCT008 BKN200 24/24 A2981=

Extra information for SKBQ:More info

Metar Taf Metar & Taf Last 4 Metars F.Rules Stats Wind Profile Meteogram Temp Stats Airport Information Weather charts Add Link Nearby VenuesMetar ALERT Operation Metar Decoded Social comments